This is the latest recevied weather packets stored in our database for station/object NR6G-5. If no packets are shown the sender has not sent any weather packets the latest 10 day(s).
| Time | Temp. | Humidity | Pressure | Rain* | Wind** | Luminosity | Snow |
|---|---|---|---|---|---|---|---|
| 1777775735 | 28.89° C | 24% | 1005.1 hPa | 0 mm | - | - | - |
| 1777775134 | 29.44° C | 24% | 1005 hPa | 0 mm | - | - | - |
| 1777769997 | 32.78° C | 17% | 1005 hPa | 0 mm | - | - | - |
| 1777767129 | 33.33° C | 17% | 1005.1 hPa | 0 mm | - | - | - |
| 1777766228 | 33.89° C | 17% | 1005.1 hPa | 0 mm | - | - | - |
| 1777765028 | 33.89° C | 18% | 1005.2 hPa | 0 mm | - | - | - |
| 1777764728 | 33.89° C | 18% | 1005.2 hPa | 0 mm | - | - | - |
| 1777764429 | 33.89° C | 17% | 1005.1 hPa | 0 mm | - | - | - |
| 1777764133 | 33.89° C | 18% | 1005.1 hPa | 0 mm | - | - | - |
| 1777763313 | 33.89° C | 18% | 1005.3 hPa | 0 mm | - | - | - |
| 1777763016 | 34.44° C | 18% | 1005.5 hPa | 0 mm | - | - | - |
| 1777761830 | 34.44° C | 22% | 1005.9 hPa | 0 mm | - | - | - |
| 1777761531 | 33.89° C | 20% | 1006 hPa | 0 mm | - | - | - |
| 1777761235 | 33.89° C | 20% | 1006.1 hPa | 0 mm | - | - | - |
| 1777760930 | 33.89° C | 22% | 1006.2 hPa | 0 mm | - | - | - |
| 1777760332 | 33.33° C | 21% | 1006.4 hPa | 0 mm | - | - | - |
| 1777760030 | 33.33° C | 22% | 1006.6 hPa | 0 mm | - | - | - |
| 1777759730 | 33.33° C | 22% | 1006.7 hPa | 0 mm | - | - | - |
| 1777759131 | 33.33° C | 22% | 1006.9 hPa | 0 mm | - | - | - |
| 1777758831 | 33.33° C | 23% | 1007.1 hPa | 0 mm | - | - | - |
| 1777758530 | 32.78° C | 23% | 1007.2 hPa | 0 mm | - | - | - |
| 1777758230 | 32.78° C | 22% | 1007.3 hPa | 0 mm | - | - | - |
| 1777757931 | 32.78° C | 23% | 1007.3 hPa | 0 mm | - | - | - |
| 1777757330 | 32.78° C | 24% | 1007.5 hPa | 0 mm | - | - | - |
| 1777756730 | 32.78° C | 25% | 1007.6 hPa | 0 mm | - | - | - |
* Rain latest hour (hover to see other rain measurements)
** Current wind speed in m/s (hover to see current wind gust speed)